Latest Weather Observations for Croker Island Airport

IDD60801

Issued at 6:01 am CST Monday 15 February 2016 (issued every 30 minutes, with the page automatically refreshed every 10 minutes)

About weather observations | Map of weather stations | Latest weather observations for NT | Other Formats
Station Details ID: 014308 Name: CROKER ISLAND AIRPORT Lat: -11.16 Lon: 132.48 Height: 9.2 m
Data from the previous 72 hours. | See also: Recent months for locations in Northern Territory
Date/Time
CST
Temp
°C
App
Temp
°C
Dew
Point
Rel
Hum
%
Delta-T
°C
Wind Press
QNH
hPa
Press
MSL
hPa
Rain
since 9 am
mm
Dir
 
Spd
km/h
Gust
km/h
Spd
kts
Gust
kts
15/06:00am 27.2 33.8 25.8 92 1.0 WNW 2 6 1 3 1008.8 1008.7 0.0
15/05:30am 27.3 34.0 25.9 92 1.0 W 2 4 1 2 1008.6 1008.5 0.0
15/05:00am 26.8 33.1 25.4 92 1.0 W 2 4 1 2 1008.6 1008.5 0.0
15/04:30am 26.7 32.8 25.1 91 1.1 ESE 2 2 1 1 1008.6 1008.5 0.0
15/04:00am 26.7 32.7 24.9 90 1.3 N 2 4 1 2 1008.3 1008.2 0.0
15/03:30am 26.9 33.3 24.9 89 1.4 CALM 0 0 0 0 1008.0 1007.9 0.0
15/03:00am 27.3 32.8 25.3 89 1.4 SSW 6 7 3 4 1008.1 1008.0 0.0
15/02:30am 27.5 32.6 25.5 89 1.4 S 9 15 5 8 1008.5 1008.4 0.0
15/02:00am 27.4 31.9 25.2 88 1.5 S 11 17 6 9 1008.8 1008.7 0.0
15/01:30am 27.4 32.1 25.0 87 1.7 S 9 11 5 6 1008.8 1008.7 0.0
15/01:00am 27.6 32.9 25.0 86 1.8 SSW 6 9 3 5 1008.8 1008.7 0.0
15/12:30am 27.8 31.9 25.2 86 1.8 SSW 13 17 7 9 1009.2 1009.1 0.0
15/12:00am 28.1 31.9 25.3 85 2.0 SW 15 19 8 10 1009.4 1009.3 0.0
 
Date/Time
CST
Temp
°C
App
Temp
°C
Dew
Point
Rel
Hum
%
Delta-T
°C
Wind Press
QNH
hPa
Press
MSL
hPa
Rain
since 9 am
mm
Dir
 
Spd
km/h
Gust
km/h
Spd
kts
Gust
kts
14/11:30pm 28.2 32.8 25.4 85 2.0 SSE 11 17 6 9 1010.0 1009.9 0.0
14/11:00pm 28.0 32.4 25.0 84 2.1 SE 11 15 6 8 1010.7 1010.6 0.0
14/10:30pm 28.0 32.2 24.8 83 2.2 SSE 11 15 6 8 1010.9 1010.8 0.0
14/10:00pm 28.4 33.0 25.4 84 2.1 WSW 11 15 6 8 1010.1 1010.0 0.0
14/09:30pm 28.6 33.1 25.2 82 2.4 WSW 11 15 6 8 1010.0 1009.9 0.0
14/09:00pm 29.0 33.5 25.2 80 2.7 WSW 11 15 6 8 1009.8 1009.7 0.0
14/08:30pm 28.4 33.3 24.6 80 2.7 W 7 11 4 6 1009.5 1009.4 0.0
14/08:00pm 26.2 30.5 22.7 81 2.4 S 4 6 2 3 1009.2 1009.1 0.0
14/07:30pm 27.1 31.6 22.9 78 2.9 SSE 4 6 2 3 1008.1 1008.0 0.0
14/07:00pm 27.9 31.9 23.7 78 2.9 SW 9 15 5 8 1007.5 1007.4 0.0
14/06:30pm 27.9 32.8 23.7 78 2.9 NW 4 6 2 3 1007.3 1007.2 0.0
14/06:00pm 28.3 32.2 24.3 79 2.8 W 11 20 6 11 1007.2 1007.1 0.0
14/05:30pm 25.9 27.6 22.4 81 2.4 WNW 17 30 9 16 1006.5 1006.4 0.0
14/05:07pm 23.4 22.5 19.8 80 2.3 NE 24 61 13 33 1006.9 1006.8 0.0
14/05:00pm 22.4 19.2 18.6 79 2.4 ESE 33 61 18 33 1008.9 1008.8 0.0
14/04:48pm 24.2 23.0 20.1 78 2.7 SE 26 57 14 31 1008.0 1007.9 0.0
14/04:44pm 26.6 27.9 22.4 78 2.8 SE 19 41 10 22 1007.6 1007.5 0.0
14/04:30pm 32.0 37.3 28.1 80 2.9 NW 17 24 9 13 1006.2 1006.1 0.0
14/04:00pm 31.8 37.0 27.9 80 2.8 WNW 17 26 9 14 1006.0 1005.9 0.0
14/03:30pm 31.9 37.1 28.0 80 2.9 WNW 17 26 9 14 1006.2 1006.1 0.0
14/03:00pm 31.8 36.6 28.1 81 2.7 WNW 20 26 11 14 1006.6 1006.5 0.0
14/02:30pm 31.6 36.1 27.7 80 2.8 WNW 20 30 11 16 1006.8 1006.7 0.0
14/02:00pm 32.0 36.9 28.1 80 2.9 WNW 19 26 10 14 1007.2 1007.1 0.0
14/01:30pm 31.9 37.3 28.2 81 2.7 WNW 17 24 9 13 1007.5 1007.4 0.0
14/01:00pm 31.8 37.5 28.1 81 2.7 WNW 15 22 8 12 1007.9 1007.8 0.0
14/12:30pm 31.4 36.3 27.5 80 2.8 WNW 17 24 9 13 1008.2 1008.1 0.0
14/12:00pm 31.9 38.4 28.2 81 2.7 WNW 11 17 6 9 1009.0 1008.9 0.0
14/11:30am 31.7 37.7 28.0 81 2.7 WNW 13 19 7 10 1009.1 1009.0 0.0
14/11:00am 31.7 38.5 28.5 83 2.4 WNW 11 17 6 9 1009.1 1009.0 0.0
14/10:30am 31.6 39.6 29.2 87 1.8 WSW 7 9 4 5 1009.5 1009.4 0.0
14/10:00am 31.3 39.7 29.7 91 1.2 W 7 11 4 6 1009.7 1009.6 0.0
14/09:30am 30.6 38.5 29.5 94 0.8 W 9 13 5 7 1009.6 1009.5 0.0
14/09:00am 30.1 37.5 29.4 96 0.5 W 11 17 6 9 1009.4 1009.3 0.0
14/08:30am 29.7 37.0 29.2 97 0.4 W 11 15 6 8 1009.2 1009.1 0.0
14/08:00am 29.2 36.6 28.9 98 0.2 W 9 13 5 7 1009.0 1008.9 0.0
14/07:30am 28.6 36.0 28.4 99 0.1 W 7 11 4 6 1008.6 1008.5 0.0
14/07:00am 28.0 35.0 27.8 99 0.1 W 7 9 4 5 1008.4 1008.3 0.0
14/06:30am 27.9 34.8 27.6 98 0.2 W 7 9 4 5 1008.2 1008.1 0.0
14/06:00am 27.9 34.6 27.4 97 0.4 W 7 9 4 5 1008.1 1008.0 0.0
14/05:30am 27.9 34.5 27.2 96 0.5 W 7 9 4 5 1007.9 1007.8 0.0
14/05:00am 27.9 34.3 27.0 95 0.6 WSW 7 9 4 5 1007.6 1007.5 0.0
14/04:30am 27.9 34.2 26.8 94 0.8 WSW 7 9 4 5 1007.5 1007.4 0.0
14/04:00am 28.1 34.5 27.0 94 0.8 W 7 13 4 7 1007.3 1007.2 0.0
14/03:30am 28.3 34.4 27.1 93 0.9 W 9 15 5 8 1007.5 1007.4 0.0
14/03:00am 28.5 34.4 27.3 93 0.9 W 11 17 6 9 1007.7 1007.6 0.0
14/02:30am 28.6 34.6 27.4 93 0.9 W 11 17 6 9 1007.9 1007.8 0.0
14/02:00am 28.7 34.4 27.5 93 0.9 W 13 17 7 9 1008.2 1008.1 0.0
14/01:30am 28.7 34.0 27.5 93 0.9 W 15 19 8 10 1008.3 1008.2 0.0
14/01:00am 28.9 34.7 27.7 93 0.9 W 13 19 7 10 1008.5 1008.4 0.0
14/12:30am 28.7 34.6 27.3 92 1.0 WNW 11 17 6 9 1008.7 1008.6 0.0
14/12:00am 28.8 34.2 27.2 91 1.2 W 13 17 7 9 1009.0 1008.9 0.0
 
Date/Time
CST
Temp
°C
App
Temp
°C
Dew
Point
Rel
Hum
%
Delta-T
°C
Wind Press
QNH
hPa
Press
MSL
hPa
Rain
since 9 am
mm
Dir
 
Spd
km/h
Gust
km/h
Spd
kts
Gust
kts
13/11:30pm 28.8 33.9 27.2 91 1.2 W 15 17 8 9 1009.2 1009.1 0.0
13/11:00pm 28.8 34.1 27.0 90 1.3 W 13 17 7 9 1009.2 1009.1 0.0
13/10:30pm 28.8 34.3 26.8 89 1.4 W 11 17 6 9 1009.2 1009.1 0.0
13/10:00pm 28.6 34.1 26.2 87 1.7 W 9 11 5 6 1008.8 1008.7 0.0
13/09:30pm 28.2 33.6 26.0 88 1.6 W 9 13 5 7 1008.6 1008.5 0.0
13/09:00pm 28.0 33.4 26.0 89 1.4 W 9 15 5 8 1008.5 1008.4 0.0
13/08:30pm 27.1 33.1 24.9 88 1.5 NNW 2 7 1 4 1008.2 1008.1 0.0
13/08:00pm 26.4 31.2 24.1 87 1.6 N 6 7 3 4 1008.2 1008.1 0.0
13/07:30pm 26.3 30.4 24.0 87 1.6 ENE 9 15 5 8 1008.5 1008.4 0.0
13/07:00pm 29.4 35.1 27.0 87 1.7 W 11 17 6 9 1007.9 1007.8 0.0
13/06:30pm 30.1 35.0 27.5 86 1.9 WNW 17 22 9 12 1007.4 1007.3 0.0
13/06:00pm 30.5 35.5 27.7 85 2.0 WNW 17 22 9 12 1006.9 1006.8 0.0
13/05:30pm 30.5 35.2 27.7 85 2.0 W 19 22 10 12 1006.9 1006.8 0.0
13/05:00pm 31.4 36.2 27.9 82 2.6 WSW 19 24 10 13 1006.9 1006.8 0.0
13/04:30pm 32.8 39.4 29.3 82 2.6 WSW 15 19 8 10 1006.6 1006.5 0.0
13/04:00pm 32.2 39.6 29.4 85 2.1 W 11 19 6 10 1006.6 1006.5 0.0
13/03:30pm 31.6 38.2 28.8 85 2.1 WNW 13 19 7 10 1006.7 1006.6 0.0
13/03:00pm 32.5 39.9 29.4 84 2.3 W 11 17 6 9 1006.8 1006.7 0.0
13/02:30pm 31.7 38.2 28.7 84 2.2 WSW 13 17 7 9 1007.2 1007.1 0.0
13/02:00pm 31.9 39.4 29.5 87 1.8 WSW 11 15 6 8 1007.4 1007.3 0.0
13/01:30pm 31.6 40.3 29.8 90 1.3 WSW 6 9 3 5 1007.5 1007.4 0.0
13/01:00pm 30.3 37.6 28.7 91 1.2 WSW 9 13 5 7 1007.8 1007.7 0.0
13/12:30pm 30.0 37.6 28.6 92 1.0 WSW 7 9 4 5 1008.2 1008.1 0.0
13/12:00pm 29.5 36.9 28.4 94 0.8 W 7 9 4 5 1008.6 1008.5 0.0
13/11:30am 28.9 36.2 28.2 96 0.5 W 7 9 4 5 1009.0 1008.9 0.0
13/11:00am 27.9 35.0 27.6 98 0.2 W 6 7 3 4 1009.4 1009.3 0.0
13/10:30am 27.4 34.5 27.2 99 0.1 W 4 6 2 3 1009.9 1009.8 0.0
13/10:00am 27.0 33.6 27.0 100 0.0 W 6 7 3 4 1010.0 1009.9 0.0
13/09:30am 26.4 31.9 26.2 99 0.1 WSW 9 13 5 7 1010.2 1010.1 0.0
13/09:00am 26.0 31.3 25.8 99 0.1 WSW 9 15 5 8 1010.2 1010.1 0.0
13/08:30am 25.9 31.1 25.7 99 0.1 SW 9 13 5 7 1010.0 1009.9 0.0
13/08:00am 25.8 30.5 25.5 98 0.2 WSW 11 17 6 9 1009.9 1009.8 0.0
13/07:30am 25.2 29.8 24.7 97 0.3 SW 9 15 5 8 1009.4 1009.3 0.0
13/07:00am 24.9 29.2 24.2 96 0.5 SSW 9 13 5 7 1008.8 1008.7 0.0
13/06:30am 24.6 28.2 23.7 95 0.6 S 11 17 6 9 1008.5 1008.4 0.0
13/06:00am 24.6 28.9 23.7 95 0.6 SW 7 17 4 9 1009.2 1009.1 0.0
13/05:30am 24.3 26.9 23.3 94 0.7 SW 15 20 8 11 1008.6 1008.5 0.0
13/05:00am 24.1 26.4 22.7 92 0.9 S 15 24 8 13 1007.8 1007.7 0.0
13/04:30am 23.4 24.2 21.7 90 1.1 SE 20 33 11 18 1008.5 1008.4 0.0
13/04:00am 26.6 28.3 24.1 86 1.7 SSW 22 46 12 25 1007.9 1007.8 0.0
13/03:58am 27.9 30.9 25.3 86 1.8 SW 19 46 10 25 1007.5 1007.4 0.0
13/03:30am 29.0 34.2 26.8 88 1.6 WSW 13 20 7 11 1006.7 1006.6 0.0
13/03:00am 29.2 33.7 27.0 88 1.6 WSW 17 24 9 13 1006.5 1006.4 0.0
13/02:30am 29.2 34.1 27.0 88 1.6 W 15 20 8 11 1006.4 1006.3 0.0
13/02:00am 29.2 33.6 26.8 87 1.7 W 17 22 9 12 1006.9 1006.8 0.0
13/01:30am 29.2 34.7 26.8 87 1.7 W 11 17 6 9 1007.6 1007.5 0.0
13/01:00am 29.3 34.5 26.9 87 1.7 WSW 13 17 7 9 1008.0 1007.9 0.0
13/12:30am 29.4 34.3 27.0 87 1.7 W 15 20 8 11 1008.0 1007.9 0.0
13/12:00am 29.4 34.3 27.0 87 1.7 W 15 20 8 11 1008.1 1008.0 0.0
 
Date/Time
CST
Temp
°C
App
Temp
°C
Dew
Point
Rel
Hum
%
Delta-T
°C
Wind Press
QNH
hPa
Press
MSL
hPa
Rain
since 9 am
mm
Dir
 
Spd
km/h
Gust
km/h
Spd
kts
Gust
kts
12/11:30pm 29.3 34.8 26.7 86 1.9 W 11 15 6 8 1008.5 1008.4 0.0
12/11:00pm 29.2 35.0 26.6 86 1.9 W 9 13 5 7 1008.7 1008.6 0.0
12/10:30pm 29.3 34.6 26.5 85 2.0 W 11 15 6 8 1008.4 1008.3 0.0
12/10:00pm 29.3 34.1 26.3 84 2.1 WNW 13 17 7 9 1008.0 1007.9 0.0
12/09:30pm 29.4 34.2 26.2 83 2.3 WNW 13 20 7 11 1008.0 1007.9 0.0
12/09:00pm 29.5 34.7 26.3 83 2.3 WNW 11 17 6 9 1007.9 1007.8 0.0
12/08:30pm 29.8 35.1 26.4 82 2.4 WNW 11 15 6 8 1007.7 1007.6 0.0
12/08:00pm 29.5 35.1 26.3 83 2.3 WNW 9 13 5 7 1007.5 1007.4 0.0
12/07:30pm 29.6 35.5 26.2 82 2.4 WNW 7 11 4 6 1007.2 1007.1 0.0
12/07:00pm 29.9 34.5 26.5 82 2.4 WNW 15 20 8 11 1006.8 1006.7 0.0
12/06:30pm 30.0 34.3 26.6 82 2.4 WNW 17 22 9 12 1006.6 1006.5 0.0
12/06:00pm 30.2 34.2 26.8 82 2.4 WNW 19 24 10 13 1006.2 1006.1 0.0
12/05:30pm 30.5 34.4 26.9 81 2.6 WNW 20 26 11 14 1005.8 1005.7 0.0
12/05:00pm 31.0 35.0 27.1 80 2.8 WNW 20 30 11 16 1005.6 1005.5 0.0
12/04:30pm 31.4 35.7 27.5 80 2.8 WNW 20 30 11 16 1005.5 1005.4 0.0
12/04:00pm 31.4 35.3 27.5 80 2.8 WNW 22 33 12 18 1005.7 1005.6 0.0
12/03:30pm 31.3 35.7 27.6 81 2.7 WNW 20 28 11 15 1006.0 1005.9 0.0
12/03:00pm 30.9 35.1 27.3 81 2.6 WNW 20 30 11 16 1006.2 1006.1 0.0
12/02:30pm 30.9 35.4 27.0 80 2.8 WNW 17 24 9 13 1006.5 1006.4 0.0
12/02:00pm 31.3 37.0 27.6 81 2.7 WNW 13 20 7 11 1006.7 1006.6 0.0
12/01:30pm 30.5 35.7 26.9 81 2.6 NW 13 19 7 10 1006.9 1006.8 0.0
12/01:00pm 30.6 36.4 27.2 82 2.5 WNW 11 15 6 8 1007.3 1007.2 0.0
12/12:30pm 30.3 35.9 26.9 82 2.4 WNW 11 19 6 10 1007.7 1007.6 0.0
12/12:00pm 29.9 35.2 26.5 82 2.4 WNW 11 17 6 9 1008.2 1008.1 0.0
12/11:30am 30.2 35.7 26.8 82 2.4 WNW 11 15 6 8 1008.4 1008.3 0.0
12/11:00am 29.7 35.7 26.3 82 2.4 WNW 7 13 4 7 1008.6 1008.5 0.0
12/10:30am 29.5 35.5 26.3 83 2.3 WNW 7 11 4 6 1008.9 1008.8 0.0
12/10:00am 29.4 35.2 26.0 82 2.4 NW 7 9 4 5 1009.1 1009.0 0.0
12/09:30am 30.5 37.7 27.3 83 2.3 ESE 4 7 2 4 1009.0 1008.9 0.0
12/09:00am 29.1 35.9 26.1 84 2.1 SE 2 4 1 2 1009.2 1009.1 0.0
12/08:30am 29.4 35.6 26.6 85 2.0 S 7 9 4 5 1009.3 1009.2 0.0
12/08:00am 28.4 33.3 25.8 86 1.8 S 11 19 6 10 1008.9 1008.8 0.0
12/07:30am 27.9 32.8 25.3 86 1.8 S 9 13 5 7 1008.6 1008.5 0.0
12/07:00am 28.0 31.5 25.4 86 1.8 SSW 17 20 9 11 1008.5 1008.4 0.0
12/06:30am 27.8 32.0 25.4 87 1.7 SW 13 19 7 10 1007.7 1007.6 0.0

Other Formats:

Comma delimited format used in spreadsheet applications
http://www.bom.gov.au/fwo/IDD60801/IDD60801.94108.axf

JavaScript Object Notation format (JSON) in row-major order
http://www.bom.gov.au/fwo/IDD60801/IDD60801.94108.json